Time;durP1;ratioP1;P1;durP2;ratioP2;P2;SDS_P1;SDS_P2;PMS_P1;PMS_P2;Temp;Humidity;BMP_temperature;BMP_pressure;BME280_temperature;BME280_humidity;BME280_pressure;Samples;Min_cycle;Max_cycle;Signal;HPM_P1;HPM_P2
2022/05/26 00:00:46;;;;;;;0.22;0.22;;;19.70;71.00;;;;;;4193952;28;20136;-68
2022/05/26 00:03:08;;;;;;;0.00;0.00;;;19.70;71.00;;;;;;4194053;28;20052;-68
2022/05/26 00:05:30;;;;;;;0.00;0.00;;;19.70;71.00;;;;;;4194453;28;20048;-68
2022/05/26 00:07:52;;;;;;;0.00;0.00;;;19.70;71.10;;;;;;4194124;28;20059;-68
2022/05/26 00:10:14;;;;;;;0.00;0.00;;;19.70;71.10;;;;;;4202101;28;20051;-68
2022/05/26 00:12:38;;;;;;;0.00;0.00;;;19.70;71.20;;;;;;4204932;28;20105;-68
2022/05/26 00:15:00;;;;;;;0.00;0.00;;;19.70;71.20;;;;;;4194046;28;20044;-68
2022/05/26 00:17:22;;;;;;;0.00;0.00;;;19.70;71.20;;;;;;4192674;28;20056;-68
2022/05/26 00:19:45;;;;;;;0.00;0.00;;;19.70;71.30;;;;;;4177234;28;20499;-68
2022/05/26 00:22:07;;;;;;;0.57;0.57;;;19.70;71.30;;;;;;4177393;28;20048;-69
2022/05/26 00:24:29;;;;;;;0.00;0.00;;;19.70;71.30;;;;;;4207466;28;20046;-69
2022/05/26 00:26:51;;;;;;;0.00;0.00;;;19.70;71.40;;;;;;4227624;28;20096;-68
2022/05/26 00:29:15;;;;;;;0.00;0.00;;;19.70;71.40;;;;;;4211899;28;20067;-67
2022/05/26 00:31:37;;;;;;;0.00;0.00;;;19.70;71.40;;;;;;4210268;28;20071;-67
2022/05/26 00:33:59;;;;;;;0.00;0.00;;;19.70;71.40;;;;;;4210178;28;20071;-66
2022/05/26 00:36:37;;;;;;;0.00;0.00;;;19.70;71.40;;;;;;4193754;28;20048;-66
2022/05/26 00:38:59;;;;;;;0.10;0.10;;;19.70;71.50;;;;;;4207758;28;20136;-66
2022/05/26 00:41:22;;;;;;;0.17;0.17;;;19.70;71.50;;;;;;4210447;28;20475;-67
2022/05/26 00:43:46;;;;;;;0.10;0.10;;;19.70;71.50;;;;;;4194550;28;20095;-66
2022/05/26 00:46:16;;;;;;;0.55;0.55;;;19.70;71.60;;;;;;4193690;28;20537;-67
2022/05/26 00:48:46;;;;;;;0.00;0.00;;;19.70;71.60;;;;;;4193493;28;20040;-67
2022/05/26 00:51:08;;;;;;;0.00;0.00;;;19.70;71.60;;;;;;4191467;28;20110;-67
2022/05/26 00:53:38;;;;;;;0.00;0.00;;;19.70;71.60;;;;;;4193783;28;20041;-67
2022/05/26 00:56:09;;;;;;;0.00;0.00;;;19.70;71.60;;;;;;4191765;28;20054;-67
2022/05/26 00:58:38;;;;;;;0.00;0.00;;;19.70;71.60;;;;;;4195020;28;20127;-66
2022/05/26 01:01:05;;;;;;;0.05;0.05;;;19.70;71.70;;;;;;4193847;28;20055;-67
2022/05/26 01:03:32;;;;;;;0.00;0.00;;;19.70;72.70;;;;;;4193666;28;20114;-67
2022/05/26 01:05:59;;;;;;;0.00;0.00;;;19.70;71.80;;;;;;4191957;28;20503;-67
2022/05/26 01:08:26;;;;;;;0.00;0.00;;;19.60;72.60;;;;;;4194169;28;20040;-67
2022/05/26 01:10:48;;;;;;;0.00;0.00;;;19.70;71.90;;;;;;4206135;28;20093;-66
2022/05/26 01:13:10;;;;;;;0.00;0.00;;;19.60;71.90;;;;;;4199957;28;20127;-66
2022/05/26 01:15:38;;;;;;;0.00;0.00;;;19.70;72.00;;;;;;4193384;28;20036;-67
2022/05/26 01:18:07;;;;;;;0.00;0.00;;;19.60;71.90;;;;;;4192962;28;20387;-67
2022/05/26 01:20:51;;;;;;;0.00;0.00;;;19.60;71.90;;;;;;4192156;28;20054;-67
2022/05/26 01:23:49;;;;;;;0.00;0.00;;;19.60;72.80;;;;;;4194482;28;20074;-67
2022/05/26 01:26:34;;;;;;;0.25;0.25;;;19.60;72.00;;;;;;4202191;28;20127;-66
2022/05/26 01:29:24;;;;;;;0.00;0.00;;;19.60;72.10;;;;;;4213151;28;20056;-67
2022/05/26 01:31:53;;;;;;;0.00;0.00;;;19.60;72.10;;;;;;4213164;28;20487;-67
2022/05/26 01:34:21;;;;;;;0.00;0.00;;;19.60;72.20;;;;;;4208795;28;20075;-67
2022/05/26 01:36:51;;;;;;;0.17;0.17;;;19.60;72.20;;;;;;4213159;28;20482;-67
2022/05/26 01:39:23;;;;;;;0.10;0.10;;;19.60;72.40;;;;;;4212939;28;20048;-67
2022/05/26 01:42:08;;;;;;;0.35;0.35;;;19.60;72.40;;;;;;4212839;28;20425;-67
2022/05/26 01:44:41;;;;;;;0.00;0.00;;;19.60;72.60;;;;;;4216806;28;20071;-67
2022/05/26 01:47:10;;;;;;;0.00;0.00;;;19.60;72.60;;;;;;4229347;28;20127;-68
2022/05/26 01:49:39;;;;;;;0.00;0.00;;;19.60;72.80;;;;;;4229487;27;20100;-67
2022/05/26 01:52:08;;;;;;;0.00;0.00;;;19.60;72.80;;;;;;4194947;28;20106;-67
2022/05/26 01:54:35;;;;;;;0.00;0.00;;;19.60;72.90;;;;;;4207189;28;20420;-67
2022/05/26 01:57:03;;;;;;;0.00;0.00;;;19.60;72.90;;;;;;4229419;27;20094;-66
2022/05/26 01:59:29;;;;;;;0.00;0.00;;;19.60;73.00;;;;;;4229675;27;20058;-66
2022/05/26 02:01:55;;;;;;;0.00;0.00;;;19.60;73.00;;;;;;4229693;27;20158;-67
2022/05/26 02:04:23;;;;;;;0.00;0.00;;;19.60;73.00;;;;;;4225640;27;20548;-67
2022/05/26 02:06:51;;;;;;;0.10;0.10;;;19.60;73.10;;;;;;4212283;28;20460;-67
2022/05/26 02:09:16;;;;;;;0.00;0.00;;;19.60;73.10;;;;;;4212551;28;20130;-67
2022/05/26 02:11:45;;;;;;;0.38;0.38;;;19.60;73.10;;;;;;4212600;28;20038;-67
2022/05/26 02:14:13;;;;;;;0.00;0.00;;;19.60;73.10;;;;;;4213358;28;20071;-67
2022/05/26 02:16:46;;;;;;;2.20;1.65;;;19.50;73.10;;;;;;4195792;28;20044;-67
2022/05/26 02:19:11;;;;;;;0.00;0.00;;;19.50;73.10;;;;;;4195338;28;20426;-67
2022/05/26 02:21:41;;;;;;;0.00;0.00;;;19.50;73.20;;;;;;4195728;28;20041;-67
2022/05/26 02:24:08;;;;;;;0.00;0.00;;;19.60;73.20;;;;;;4197676;28;20049;-67
2022/05/26 02:26:34;;;;;;;1.88;0.90;;;19.60;73.30;;;;;;4227889;28;20127;-67
2022/05/26 02:31:40;;;;;;;0.00;0.00;;;19.50;73.20;;;;;;4228766;27;20050;-67
2022/05/26 02:34:03;;;;;;;0.00;0.00;;;19.50;73.20;;;;;;4225505;27;20054;-67
2022/05/26 02:36:30;;;;;;;1.23;1.17;;;19.50;73.20;;;;;;4212068;28;20387;-67
2022/05/26 02:38:53;;;;;;;0.00;0.00;;;19.50;73.30;;;;;;4211837;28;20048;-67
2022/05/26 02:41:15;;;;;;;0.00;0.00;;;19.60;73.30;;;;;;4212155;28;20051;-67
2022/05/26 02:43:37;;;;;;;0.00;0.00;;;19.50;73.20;;;;;;4199342;28;20093;-67
2022/05/26 02:46:12;;;;;;;0.20;0.20;;;19.50;73.20;;;;;;4178701;28;20048;-67
2022/05/26 02:48:54;;;;;;;0.00;0.00;;;19.50;73.30;;;;;;4178209;28;20052;-67
2022/05/26 02:51:22;;;;;;;0.00;0.00;;;19.60;73.40;;;;;;4193020;28;20040;-67
2022/05/26 02:53:49;;;;;;;0.00;0.00;;;19.50;73.40;;;;;;4199507;27;20054;-67
2022/05/26 02:56:19;;;;;;;0.10;0.10;;;19.50;73.40;;;;;;4227767;28;20135;-67
2022/05/26 02:58:51;;;;;;;0.20;0.20;;;19.50;73.50;;;;;;4228005;28;20117;-67
2022/05/26 03:01:21;;;;;;;0.00;0.00;;;19.50;73.50;;;;;;4228841;27;20134;-67
2022/05/26 03:03:48;;;;;;;0.00;0.00;;;19.50;73.50;;;;;;4227343;27;20118;-67
2022/05/26 03:06:15;;;;;;;0.00;0.00;;;19.50;73.50;;;;;;4211551;28;20359;-67
2022/05/26 03:08:39;;;;;;;2.08;0.98;;;19.50;73.50;;;;;;4211784;28;20055;-67
2022/05/26 03:11:06;;;;;;;0.00;0.00;;;19.50;73.50;;;;;;4209988;28;20138;-67
2022/05/26 03:13:30;;;;;;;0.00;0.00;;;19.50;73.60;;;;;;4201796;28;20064;-67
2022/05/26 03:15:53;;;;;;;1.20;1.20;;;19.50;73.60;;;;;;4178030;28;20063;-67
2022/05/26 03:18:15;;;;;;;0.00;0.00;;;19.50;73.60;;;;;;4177972;28;20048;-67
2022/05/26 03:20:37;;;;;;;0.00;0.00;;;19.50;73.70;;;;;;4178078;28;20128;-67
2022/05/26 03:22:59;;;;;;;0.00;0.00;;;19.50;73.70;;;;;;4178371;28;20045;-67
2022/05/26 03:25:21;;;;;;;0.00;0.00;;;19.50;74.60;;;;;;4201919;28;20549;-66
2022/05/26 03:27:43;;;;;;;0.00;0.00;;;19.50;73.70;;;;;;4228241;27;20123;-66
2022/05/26 03:30:08;;;;;;;0.00;0.00;;;19.50;73.70;;;;;;4227871;27;20076;-67
2022/05/26 03:32:30;;;;;;;0.00;0.00;;;19.50;73.80;;;;;;4226282;28;20057;-68
2022/05/26 03:42:50;;;;;;;0.00;0.00;;;19.50;73.70;;;;;;4211110;28;20446;-68
2022/05/26 03:45:14;;;;;;;0.00;0.00;;;19.50;73.70;;;;;;4228021;27;20039;-68
2022/05/26 03:47:39;;;;;;;0.00;0.00;;;19.50;73.70;;;;;;4228002;27;20127;-67
2022/05/26 03:50:00;;;;;;;0.13;0.13;;;19.50;73.70;;;;;;4227674;28;20493;-69
2022/05/26 03:52:23;;;;;;;0.00;0.00;;;19.50;73.70;;;;;;4227165;27;20047;-69
2022/05/26 03:54:45;;;;;;;0.00;0.00;;;19.50;73.70;;;;;;4211157;28;20063;-69
2022/05/26 03:57:08;;;;;;;1.55;1.45;;;19.50;73.80;;;;;;4210673;28;20123;-69
2022/05/26 03:59:30;;;;;;;0.00;0.00;;;19.40;73.70;;;;;;4210833;28;20084;-69
2022/05/26 04:01:53;;;;;;;0.10;0.10;;;19.50;73.70;;;;;;4210612;28;20052;-69
2022/05/26 04:04:16;;;;;;;0.30;0.30;;;19.40;73.70;;;;;;4226111;27;20473;-69
2022/05/26 04:06:38;;;;;;;0.00;0.00;;;19.50;73.70;;;;;;4227759;27;20126;-69
2022/05/26 04:09:02;;;;;;;0.10;0.10;;;19.50;73.80;;;;;;4227531;28;20046;-69
2022/05/26 04:11:25;;;;;;;0.00;0.00;;;19.50;73.70;;;;;;4227312;27;20051;-69
2022/05/26 04:13:46;;;;;;;0.00;0.00;;;19.50;73.80;;;;;;4212845;28;20073;-70
2022/05/26 04:16:09;;;;;;;0.00;0.00;;;19.50;74.60;;;;;;4193982;28;20040;-69
2022/05/26 04:18:32;;;;;;;0.00;0.00;;;19.50;73.70;;;;;;4210219;28;20501;-69
2022/05/26 04:21:04;;;;;;;0.00;0.00;;;19.40;73.70;;;;;;4193242;28;20537;-69
2022/05/26 04:23:26;;;;;;;0.00;0.00;;;19.50;73.70;;;;;;4194137;28;20056;-69
2022/05/26 04:25:52;;;;;;;0.17;0.17;;;19.50;73.80;;;;;;4193798;28;20067;-69
2022/05/26 04:28:13;;;;;;;0.00;0.00;;;19.50;73.80;;;;;;4193492;28;20102;-69
2022/05/26 04:30:36;;;;;;;0.00;0.00;;;19.50;73.90;;;;;;4224863;28;20478;-69
2022/05/26 04:32:58;;;;;;;0.00;0.00;;;19.40;73.70;;;;;;4227430;28;20040;-69
2022/05/26 04:35:21;;;;;;;0.00;0.00;;;19.50;73.70;;;;;;4227107;28;20047;-70
2022/05/26 04:37:45;;;;;;;0.00;0.00;;;19.50;73.70;;;;;;4227254;28;20044;-69
2022/05/26 04:40:10;;;;;;;0.00;0.00;;;19.50;73.70;;;;;;4225396;28;20367;-69
2022/05/26 04:42:32;;;;;;;0.00;0.00;;;19.50;73.60;;;;;;4222664;27;20048;-68
2022/05/26 04:44:54;;;;;;;0.05;0.05;;;19.50;73.50;;;;;;4210456;28;20048;-69
2022/05/26 04:47:17;;;;;;;2.33;2.10;;;19.50;73.50;;;;;;4209006;28;20074;-69
2022/05/26 04:49:40;;;;;;;0.05;0.05;;;19.50;74.40;;;;;;4210440;28;20126;-68
2022/05/26 04:52:04;;;;;;;0.00;0.00;;;19.50;73.50;;;;;;4208763;28;20051;-68
2022/05/26 04:54:26;;;;;;;0.20;0.20;;;19.50;73.50;;;;;;4210454;28;20040;-69
2022/05/26 04:56:49;;;;;;;0.13;0.13;;;19.50;73.50;;;;;;4210247;28;20047;-69
2022/05/26 04:59:11;;;;;;;0.00;0.00;;;19.50;73.40;;;;;;4223487;28;20440;-69
2022/05/26 05:01:33;;;;;;;0.00;0.00;;;19.50;73.40;;;;;;4227014;28;20070;-68
2022/05/26 05:03:55;;;;;;;0.10;0.10;;;19.50;73.30;;;;;;4226676;28;20055;-68
2022/05/26 05:06:18;;;;;;;0.22;0.22;;;19.60;73.30;;;;;;4226888;28;20046;-69
2022/05/26 05:08:41;;;;;;;2.95;1.20;;;19.60;73.30;;;;;;4225249;28;20047;-69
2022/05/26 05:11:04;;;;;;;0.00;0.00;;;19.60;73.40;;;;;;4226848;28;20436;-69
2022/05/26 05:13:25;;;;;;;0.15;0.15;;;19.60;73.30;;;;;;4204001;28;20106;-69
2022/05/26 05:15:54;;;;;;;0.00;0.00;;;19.70;73.40;;;;;;4193477;28;20052;-68
2022/05/26 05:18:18;;;;;;;0.43;0.43;;;19.70;73.20;;;;;;4191595;28;20052;-67
2022/05/26 05:20:41;;;;;;;0.05;0.05;;;19.70;73.00;;;;;;4193496;28;20545;-67
2022/05/26 05:23:07;;;;;;;0.00;0.00;;;19.80;72.90;;;;;;4193103;28;20075;-69
2022/05/26 05:25:37;;;;;;;0.00;0.00;;;19.80;72.60;;;;;;4192820;28;20063;-67
2022/05/26 05:28:02;;;;;;;0.43;0.43;;;19.80;73.20;;;;;;4199032;28;20530;-69
2022/05/26 05:30:28;;;;;;;0.47;0.47;;;19.80;72.30;;;;;;4210166;28;20058;-69
2022/05/26 05:32:53;;;;;;;1.80;1.55;;;19.80;72.30;;;;;;4209563;28;20055;-69
2022/05/26 05:35:20;;;;;;;0.90;0.90;;;19.90;72.30;;;;;;4208619;28;20417;-77
2022/05/26 05:37:43;;;;;;;0.00;0.00;;;20.00;72.70;;;;;;4176936;28;20091;-70
2022/05/26 05:40:06;;;;;;;0.60;0.60;;;20.00;72.20;;;;;;4176402;28;20051;-69
2022/05/26 05:42:30;;;;;;;0.00;0.00;;;20.10;71.20;;;;;;4180044;28;20551;-70
2022/05/26 05:44:52;;;;;;;0.00;0.00;;;20.10;70.40;;;;;;4192872;28;20051;-70
2022/05/26 05:47:14;;;;;;;0.00;0.00;;;20.20;70.20;;;;;;4193157;28;20518;-69
2022/05/26 05:49:36;;;;;;;6.22;0.88;;;20.20;70.30;;;;;;4192856;28;20044;-70
2022/05/26 05:52:05;;;;;;;0.10;0.10;;;20.20;69.60;;;;;;4193064;28;20140;-70
2022/05/26 05:54:31;;;;;;;0.10;0.10;;;20.20;69.10;;;;;;4196393;28;20048;-70
2022/05/26 05:56:53;;;;;;;0.52;0.30;;;20.20;68.90;;;;;;4192822;28;20049;-70
2022/05/26 05:59:16;;;;;;;0.00;0.00;;;20.10;69.10;;;;;;4176071;28;20044;-71
2022/05/26 06:01:39;;;;;;;0.00;0.00;;;20.20;69.10;;;;;;4176231;28;20048;-69
2022/05/26 06:04:01;;;;;;;0.22;0.22;;;20.20;68.90;;;;;;4174137;28;20492;-70
2022/05/26 06:06:23;;;;;;;0.47;0.47;;;20.20;68.80;;;;;;4191598;28;20070;-70
2022/05/26 06:08:45;;;;;;;0.13;0.13;;;20.10;68.40;;;;;;4176538;28;20499;-70
2022/05/26 06:11:07;;;;;;;0.35;0.35;;;20.20;68.00;;;;;;4178821;28;20133;-70
2022/05/26 06:13:29;;;;;;;0.00;0.00;;;20.10;67.80;;;;;;4191305;28;20074;-70
2022/05/26 06:15:53;;;;;;;0.10;0.10;;;20.10;67.50;;;;;;4197790;28;20060;-70
2022/05/26 06:18:16;;;;;;;0.00;0.00;;;20.10;67.50;;;;;;4212481;28;20459;-70
2022/05/26 06:20:38;;;;;;;0.00;0.00;;;20.10;67.40;;;;;;4212378;28;20062;-68
2022/05/26 06:23:00;;;;;;;0.00;0.00;;;20.10;67.10;;;;;;4212770;28;20040;-70
2022/05/26 06:25:22;;;;;;;0.70;0.70;;;20.10;66.80;;;;;;4211941;28;20425;-70
2022/05/26 06:30:26;;;;;;;0.00;0.00;;;20.10;66.70;;;;;;4179078;28;20060;-71
2022/05/26 06:38:10;;;;;;;0.00;0.00;;;20.10;66.40;;;;;;4194395;28;20040;-70
2022/05/26 06:40:33;;;;;;;0.00;0.00;;;20.20;66.20;;;;;;4195419;28;20118;-69
2022/05/26 06:42:55;;;;;;;0.00;0.00;;;20.20;66.00;;;;;;4198042;28;20098;-70
2022/05/26 06:45:19;;;;;;;0.05;0.05;;;20.20;65.90;;;;;;4195252;28;20044;-70
2022/05/26 06:47:43;;;;;;;0.00;0.00;;;20.20;65.70;;;;;;4178339;28;20049;-69
2022/05/26 06:50:07;;;;;;;0.00;0.00;;;20.20;65.60;;;;;;4178892;28;20045;-70
2022/05/26 06:52:32;;;;;;;0.00;0.00;;;20.30;65.40;;;;;;4179131;28;22864;-69
2022/05/26 06:54:54;;;;;;;0.00;0.00;;;20.30;65.30;;;;;;4193727;28;20048;-70
2022/05/26 06:57:16;;;;;;;0.00;0.00;;;20.30;65.30;;;;;;4211880;28;20032;-70
2022/05/26 06:59:39;;;;;;;0.00;0.00;;;20.30;65.30;;;;;;4211887;28;20079;-70
2022/05/26 07:02:01;;;;;;;1.10;1.00;;;20.20;65.20;;;;;;4211683;28;20445;-69
2022/05/26 07:04:23;;;;;;;0.00;0.00;;;20.20;65.30;;;;;;4210116;28;20127;-69
2022/05/26 07:06:50;;;;;;;0.00;0.00;;;20.20;65.30;;;;;;4208018;28;20140;-69
2022/05/26 07:09:12;;;;;;;0.00;0.00;;;20.20;65.40;;;;;;4191486;28;20399;-69
2022/05/26 07:11:34;;;;;;;0.00;0.00;;;20.20;65.30;;;;;;4208701;28;20386;-69
2022/05/26 07:13:57;;;;;;;0.00;0.00;;;20.20;65.10;;;;;;4207942;28;20163;-69
2022/05/26 07:16:19;;;;;;;0.00;0.00;;;20.20;65.10;;;;;;4211466;28;20127;-69
2022/05/26 07:18:42;;;;;;;0.00;0.00;;;20.10;64.90;;;;;;4224238;27;20039;-69
2022/05/26 07:21:06;;;;;;;0.00;0.00;;;20.20;64.90;;;;;;4193286;28;20479;-69
2022/05/26 07:23:29;;;;;;;0.00;0.00;;;20.10;64.70;;;;;;4211715;28;20135;-70
2022/05/26 07:25:51;;;;;;;0.00;0.00;;;20.10;65.60;;;;;;4196254;28;20102;-70
2022/05/26 07:28:13;;;;;;;0.00;0.00;;;20.10;64.70;;;;;;4194736;28;20094;-70
2022/05/26 07:30:35;;;;;;;0.05;0.05;;;20.10;65.60;;;;;;4212731;28;20056;-69
2022/05/26 07:32:57;;;;;;;0.00;0.00;;;20.10;64.80;;;;;;4211329;28;20055;-70
2022/05/26 07:35:20;;;;;;;0.00;0.00;;;20.00;64.90;;;;;;4211222;28;20044;-70
2022/05/26 07:43:08;;;;;;;0.55;0.55;;;20.00;65.00;;;;;;4188349;28;20067;-70
2022/05/26 07:45:30;;;;;;;0.00;0.00;;;20.00;65.10;;;;;;4206556;28;20052;-70
2022/05/26 07:47:52;;;;;;;0.00;0.00;;;20.00;65.20;;;;;;4194185;28;20047;-70
2022/05/26 07:50:20;;;;;;;0.00;0.00;;;20.00;65.10;;;;;;4211264;28;20101;-69
2022/05/26 07:52:42;;;;;;;0.00;0.00;;;20.00;65.10;;;;;;4215415;28;20040;-68
2022/05/26 07:55:04;;;;;;;0.00;0.00;;;20.00;65.00;;;;;;4215148;28;20490;-68
2022/05/26 07:57:29;;;;;;;0.00;0.00;;;20.00;65.90;;;;;;4211030;28;20074;-69
2022/05/26 07:59:52;;;;;;;0.00;0.00;;;20.00;65.10;;;;;;4192746;28;20077;-68
2022/05/26 08:02:15;;;;;;;0.00;0.00;;;20.00;65.10;;;;;;4192973;28;20127;-68
2022/05/26 08:04:37;;;;;;;0.00;0.00;;;20.00;65.90;;;;;;4194287;28;20040;-68
2022/05/26 08:06:59;;;;;;;0.00;0.00;;;20.00;65.20;;;;;;4192927;28;20449;-68
2022/05/26 08:09:22;;;;;;;0.00;0.00;;;20.00;65.30;;;;;;4193657;28;20052;-69
2022/05/26 08:11:46;;;;;;;0.00;0.00;;;20.10;65.50;;;;;;4193188;28;20060;-69
2022/05/26 08:14:09;;;;;;;0.00;0.00;;;20.00;65.30;;;;;;4194068;28;20056;-69
2022/05/26 08:16:32;;;;;;;0.00;0.00;;;20.10;65.40;;;;;;4210215;28;20089;-69
2022/05/26 08:18:54;;;;;;;0.00;0.00;;;20.00;65.20;;;;;;4196962;28;20076;-69
2022/05/26 08:21:18;;;;;;;0.00;0.00;;;20.10;65.10;;;;;;4211922;28;20055;-69
2022/05/26 08:23:41;;;;;;;0.00;0.00;;;20.10;64.90;;;;;;4203553;28;20170;-67
2022/05/26 08:26:03;;;;;;;0.00;0.00;;;20.10;64.90;;;;;;4196959;28;20463;-65
2022/05/26 08:28:25;;;;;;;0.00;0.00;;;20.10;64.70;;;;;;4195147;28;20130;-64
2022/05/26 08:30:49;;;;;;;0.00;0.00;;;20.10;64.60;;;;;;4207090;28;20095;-66
2022/05/26 08:33:11;;;;;;;0.00;0.00;;;20.10;64.70;;;;;;4202367;28;20116;-67
2022/05/26 08:35:33;;;;;;;0.00;0.00;;;20.10;64.70;;;;;;4199269;28;20040;-65
2022/05/26 08:37:55;;;;;;;0.30;0.30;;;20.10;64.60;;;;;;4197848;28;20080;-65
2022/05/26 08:40:30;;;;;;;0.00;0.00;;;20.10;64.60;;;;;;4196098;28;20063;-66
2022/05/26 08:42:52;;;;;;;0.00;0.00;;;20.10;64.60;;;;;;4205219;28;20071;-67
2022/05/26 08:45:15;;;;;;;0.00;0.00;;;20.20;64.30;;;;;;4201607;28;20039;-67
2022/05/26 08:47:44;;;;;;;0.00;0.00;;;20.20;64.20;;;;;;4205158;28;20071;-65
2022/05/26 08:50:10;;;;;;;0.00;0.00;;;20.10;64.10;;;;;;4204606;28;20503;-65
2022/05/26 08:52:36;;;;;;;0.00;0.00;;;20.20;63.80;;;;;;4203124;28;20047;-65
2022/05/26 08:55:04;;;;;;;0.00;0.00;;;20.20;63.70;;;;;;4197283;28;20123;-65
2022/05/26 08:57:29;;;;;;;2.17;1.17;;;20.30;63.30;;;;;;4197566;28;20506;-65
2022/05/26 08:59:52;;;;;;;0.00;0.00;;;20.30;62.90;;;;;;4199292;28;20097;-66
2022/05/26 09:02:24;;;;;;;0.00;0.00;;;20.40;62.70;;;;;;4203073;28;20048;-65
2022/05/26 09:04:47;;;;;;;0.00;0.00;;;20.40;62.30;;;;;;4207018;28;20471;-65
2022/05/26 09:15:16;;;;;;;0.00;0.00;;;20.60;61.20;;;;;;4196150;28;20048;-65
2022/05/26 09:17:38;;;;;;;0.00;0.00;;;20.60;61.00;;;;;;4201893;28;20051;-68
2022/05/26 09:20:05;;;;;;;0.00;0.00;;;20.60;60.90;;;;;;4191749;28;20433;-76
2022/05/26 09:22:32;;;;;;;0.00;0.00;;;20.60;60.80;;;;;;4203933;28;20052;-68
2022/05/26 09:24:54;;;;;;;0.00;0.00;;;20.60;60.80;;;;;;4201477;28;20060;-68
2022/05/26 09:27:27;;;;;;;0.00;0.00;;;20.70;60.50;;;;;;4204993;28;20048;-68
2022/05/26 09:29:50;;;;;;;1.17;1.13;;;20.70;60.30;;;;;;4205202;28;20126;-67
2022/05/26 09:32:17;;;;;;;0.10;0.10;;;20.70;60.00;;;;;;4203557;28;20044;-69
2022/05/26 09:35:06;;;;;;;0.17;0.17;;;20.70;59.80;;;;;;4201806;28;20062;-69
2022/05/26 09:37:39;;;;;;;0.00;0.00;;;20.70;59.80;;;;;;4194535;28;20055;-69
2022/05/26 09:40:14;;;;;;;0.00;0.00;;;20.70;59.70;;;;;;4190708;28;20045;-68
2022/05/26 09:42:42;;;;;;;0.00;0.00;;;20.80;59.70;;;;;;4190601;28;20045;-69
2022/05/26 09:45:10;;;;;;;0.00;0.00;;;20.80;59.70;;;;;;4193087;28;20054;-69
2022/05/26 09:47:39;;;;;;;0.00;0.00;;;20.80;59.90;;;;;;4193934;28;20045;-68
2022/05/26 09:50:05;;;;;;;2.85;1.85;;;20.80;59.80;;;;;;4208248;28;20052;-68
2022/05/26 09:52:40;;;;;;;0.00;0.00;;;20.80;59.90;;;;;;4204706;28;20055;-68
2022/05/26 09:55:16;;;;;;;0.00;0.00;;;20.90;59.80;;;;;;4207579;28;20600;-68
2022/05/26 09:57:38;;;;;;;0.00;0.00;;;20.90;59.70;;;;;;4200739;28;20075;-68
2022/05/26 10:00:00;;;;;;;0.10;0.10;;;20.90;59.70;;;;;;4177207;28;20049;-69
2022/05/26 10:02:26;;;;;;;13.48;0.90;;;21.00;59.50;;;;;;4199693;28;20093;-68
2022/05/26 10:04:59;;;;;;;0.00;0.00;;;21.00;59.40;;;;;;4196178;28;20060;-69
2022/05/26 10:07:31;;;;;;;0.00;0.00;;;21.00;59.20;;;;;;4207812;27;20051;-69
2022/05/26 10:10:10;;;;;;;0.00;0.00;;;21.10;58.90;;;;;;4193451;28;20063;-68
2022/05/26 10:12:44;;;;;;;0.05;0.05;;;21.10;59.20;;;;;;4203261;28;20044;-69
2022/05/26 10:15:16;;;;;;;0.00;0.00;;;21.00;57.90;;;;;;4206256;28;20051;-69
2022/05/26 10:17:51;;;;;;;0.00;0.00;;;21.00;57.80;;;;;;4197791;28;20557;-68
2022/05/26 10:20:33;;;;;;;0.00;0.00;;;21.00;57.70;;;;;;4201836;28;20051;-69
2022/05/26 10:23:12;;;;;;;0.00;0.00;;;21.00;57.60;;;;;;4201851;28;20068;-68
2022/05/26 10:25:40;;;;;;;0.00;0.00;;;21.00;57.70;;;;;;4203596;28;20052;-68
2022/05/26 10:28:49;;;;;;;0.10;0.10;;;20.90;58.00;;;;;;4200825;28;20127;-68
2022/05/26 10:31:24;;;;;;;0.00;0.00;;;21.00;58.30;;;;;;4168069;28;20408;-68
2022/05/26 10:34:04;;;;;;;0.00;0.00;;;21.00;58.10;;;;;;4204114;28;20136;-68
2022/05/26 10:36:37;;;;;;;15.23;3.20;;;20.90;58.00;;;;;;4196473;28;20049;-68
2022/05/26 10:39:10;;;;;;;0.00;0.00;;;20.90;58.00;;;;;;4204920;28;20052;-68
2022/05/26 10:41:37;;;;;;;0.00;0.00;;;20.90;58.00;;;;;;4205537;28;20068;-67
2022/05/26 10:44:07;;;;;;;0.00;0.00;;;20.90;57.90;;;;;;4193465;28;20174;-69
2022/05/26 10:46:32;;;;;;;0.00;0.00;;;20.90;58.00;;;;;;4201636;28;20048;-69
2022/05/26 10:49:01;;;;;;;0.00;0.00;;;20.90;58.10;;;;;;4196357;28;20048;-68
2022/05/26 10:51:30;;;;;;;0.22;0.22;;;20.90;58.20;;;;;;4176002;28;20127;-67
2022/05/26 10:53:58;;;;;;;0.30;0.30;;;21.00;58.20;;;;;;4190495;28;20139;-68
2022/05/26 10:56:29;;;;;;;0.00;0.00;;;21.00;58.20;;;;;;4201444;28;20471;-69
2022/05/26 10:59:03;;;;;;;0.00;0.00;;;21.00;58.20;;;;;;4198471;28;20055;-69
2022/05/26 11:01:34;;;;;;;0.00;0.00;;;21.00;58.20;;;;;;4205962;28;20075;-69
2022/05/26 11:03:59;;;;;;;;;;;21.10;58.20;;;;;;4201450;28;20394;-68
2022/05/26 11:06:26;;;;;;;0.00;0.00;;;21.10;58.20;;;;;;4191866;28;21040;-71
2022/05/26 11:08:54;;;;;;;0.00;0.00;;;21.10;58.20;;;;;;4202824;28;20055;-70
2022/05/26 11:11:28;;;;;;;0.00;0.00;;;21.20;58.20;;;;;;4202680;28;20067;-70
2022/05/26 11:13:55;;;;;;;0.00;0.00;;;21.20;58.10;;;;;;4202210;28;20090;-69
2022/05/26 11:19:18;;;;;;;0.00;0.00;;;21.20;58.10;;;;;;4204502;28;20048;-68
2022/05/26 11:21:40;;;;;;;0.00;0.00;;;21.30;58.10;;;;;;4207193;28;20050;-68
2022/05/26 11:24:03;;;;;;;0.00;0.00;;;21.30;58.10;;;;;;4201178;28;20059;-69
2022/05/26 11:26:36;;;;;;;0.00;0.00;;;21.30;58.00;;;;;;4191943;28;20080;-69
2022/05/26 11:29:01;;;;;;;0.90;0.90;;;21.30;58.00;;;;;;4197282;28;20131;-68
2022/05/26 11:36:56;;;;;;;0.00;0.00;;;21.30;58.00;;;;;;4199262;28;20226;-67
2022/05/26 11:39:22;;;;;;;0.00;0.00;;;21.30;58.10;;;;;;4197648;28;20102;-68
2022/05/26 11:41:51;;;;;;;0.30;0.30;;;21.30;58.20;;;;;;4196278;28;20543;-68
2022/05/26 11:44:13;;;;;;;0.63;0.63;;;21.30;58.20;;;;;;4205751;28;20052;-68
2022/05/26 11:46:49;;;;;;;0.20;0.20;;;21.30;58.20;;;;;;4204269;28;20071;-68
2022/05/26 11:49:32;;;;;;;0.00;0.00;;;21.30;58.10;;;;;;4185238;28;20040;-68
2022/05/26 11:51:54;;;;;;;0.30;0.30;;;21.30;58.10;;;;;;4199904;28;20059;-67
2022/05/26 11:55:01;;;;;;;0.00;0.00;;;21.30;58.10;;;;;;4201947;28;20106;-67
2022/05/26 11:57:38;;;;;;;0.00;0.00;;;21.20;58.00;;;;;;4204986;28;20040;-67
2022/05/26 12:00:19;;;;;;;0.00;0.00;;;21.30;58.40;;;;;;4191193;28;20536;-68
2022/05/26 12:02:51;;;;;;;0.00;0.00;;;21.30;58.60;;;;;;4193353;28;20481;-68
2022/05/26 12:05:46;;;;;;;0.50;0.50;;;21.30;58.80;;;;;;4207608;28;20127;-67
2022/05/26 12:08:31;;;;;;;25.67;1.75;;;21.30;59.10;;;;;;4196675;28;20109;-67
2022/05/26 12:10:56;;;;;;;7.18;3.60;;;21.30;59.60;;;;;;4199588;27;20048;-67
2022/05/26 12:13:39;;;;;;;0.90;0.90;;;21.30;60.30;;;;;;4196465;28;20052;-67
2022/05/26 12:16:28;;;;;;;1.55;1.45;;;21.30;60.70;;;;;;4203383;28;20514;-66
2022/05/26 12:18:52;;;;;;;1.20;1.17;;;21.40;60.90;;;;;;4190879;28;20048;-66
2022/05/26 12:21:16;;;;;;;0.98;0.98;;;21.40;61.00;;;;;;4207482;28;20048;-66
2022/05/26 12:23:39;;;;;;;3.83;3.50;;;21.40;61.10;;;;;;4204005;28;20439;-67
2022/05/26 12:26:30;;;;;;;0.43;0.43;;;21.50;61.20;;;;;;4200651;28;20403;-67
2022/05/26 12:28:54;;;;;;;2.08;1.08;;;21.50;61.40;;;;;;4193866;28;20049;-66
2022/05/26 12:31:16;;;;;;;1.23;1.23;;;21.50;61.20;;;;;;4202779;28;20055;-67
2022/05/26 12:34:19;;;;;;;0.00;0.00;;;21.40;61.10;;;;;;4201468;28;20051;-67
2022/05/26 12:36:52;;;;;;;0.15;0.15;;;21.40;60.90;;;;;;4200061;28;20054;-66
2022/05/26 12:39:39;;;;;;;1.77;1.67;;;21.50;60.80;;;;;;4195650;28;20040;-67
2022/05/26 12:42:10;;;;;;;0.03;0.03;;;21.50;60.50;;;;;;4174546;28;20044;-67
2022/05/26 12:45:08;;;;;;;0.35;0.35;;;21.50;60.40;;;;;;4199043;28;20040;-67
2022/05/26 12:47:48;;;;;;;1.27;1.00;;;21.50;60.10;;;;;;4199569;28;20097;-67
2022/05/26 12:50:15;;;;;;;0.10;0.10;;;21.40;59.90;;;;;;4206191;28;20487;-65
2022/05/26 12:52:39;;;;;;;0.00;0.00;;;21.50;59.80;;;;;;4195896;28;20051;-65
2022/05/26 12:55:22;;;;;;;0.00;0.00;;;21.50;59.60;;;;;;4193168;28;20098;-67
2022/05/26 12:57:50;;;;;;;0.00;0.00;;;21.40;59.50;;;;;;4174786;28;20461;-66
2022/05/26 13:00:28;;;;;;;0.10;0.10;;;21.40;59.50;;;;;;4176011;28;20128;-66
2022/05/26 13:02:51;;;;;;;1.27;1.25;;;21.40;60.30;;;;;;4192381;28;20044;-65
2022/05/26 13:05:14;;;;;;;0.00;0.00;;;21.40;59.50;;;;;;4192847;28;20430;-67
2022/05/26 13:07:36;;;;;;;0.45;0.45;;;21.40;59.50;;;;;;4209597;28;20482;-65
2022/05/26 13:09:58;;;;;;;0.00;0.00;;;21.40;59.50;;;;;;4218662;28;20040;-64
2022/05/26 13:12:26;;;;;;;0.00;0.00;;;21.40;59.20;;;;;;4223943;28;20043;-65
2022/05/26 13:14:50;;;;;;;0.00;0.00;;;21.30;59.20;;;;;;4209866;28;20109;-67
2022/05/26 13:17:16;;;;;;;0.00;0.00;;;21.40;59.10;;;;;;4222369;28;20067;-67
2022/05/26 13:19:43;;;;;;;0.00;0.00;;;21.30;59.00;;;;;;4228078;28;20059;-65
2022/05/26 13:22:12;;;;;;;0.25;0.25;;;21.30;58.90;;;;;;4230082;28;20056;-63
2022/05/26 13:24:34;;;;;;;0.00;0.00;;;21.30;58.80;;;;;;4220785;28;20054;-65
2022/05/26 13:26:59;;;;;;;0.00;0.00;;;21.30;58.70;;;;;;4212591;28;20036;-66